Time;durP1;ratioP1;P1;durP2;ratioP2;P2;SDS_P1;SDS_P2;PMS_P1;PMS_P2;Temp;Humidity;BMP_temperature;BMP_pressure;BME280_temperature;BME280_humidity;BME280_pressure;Samples;Min_cycle;Max_cycle;Signal;HPM_P1;HPM_P2
2022/12/19 00:01:06;;;;;;;80.33;44.10;;;8.90;1.00;;;;;;5026880;28;20022;-67
2022/12/19 00:03:32;;;;;;;82.23;43.67;;;8.90;1.00;;;;;;5034168;28;20033;-67
2022/12/19 00:06:01;;;;;;;82.07;44.67;;;8.80;1.00;;;;;;5034703;28;20033;-67
2022/12/19 00:08:27;;;;;;;81.63;43.87;;;8.90;1.00;;;;;;5021072;28;20048;-66
2022/12/19 00:10:58;;;;;;;75.13;42.57;;;8.80;1.00;;;;;;5032946;28;20049;-66
2022/12/19 00:13:25;;;;;;;80.83;42.90;;;8.90;1.00;;;;;;5034122;28;20532;-66
2022/12/19 00:15:50;;;;;;;71.67;41.63;;;8.80;1.00;;;;;;5033161;28;20036;-66
2022/12/19 00:18:16;;;;;;;73.77;40.33;;;8.80;1.00;;;;;;5032791;28;20380;-67
2022/12/19 00:20:42;;;;;;;72.10;39.73;;;8.90;1.00;;;;;;5040787;28;20505;-66
2022/12/19 00:23:07;;;;;;;78.33;40.47;;;8.90;1.00;;;;;;5039011;28;20033;-66
2022/12/19 00:26:14;;;;;;;82.93;42.00;;;8.90;1.00;;;;;;5027356;28;20120;-66
2022/12/19 00:28:40;;;;;;;83.70;41.37;;;8.90;1.00;;;;;;5033786;28;20026;-66
2022/12/19 00:31:06;;;;;;;75.55;38.35;;;8.80;1.00;;;;;;5033966;28;20538;-66
2022/12/19 00:33:32;;;;;;;72.40;38.05;;;8.80;1.00;;;;;;5033597;28;20171;-66
2022/12/19 00:35:59;;;;;;;77.67;39.70;;;8.80;1.00;;;;;;5034190;28;20487;-66
2022/12/19 00:38:25;;;;;;;73.30;38.80;;;8.90;1.00;;;;;;5027896;28;20113;-66
2022/12/19 00:40:50;;;;;;;83.40;41.40;;;9.00;1.00;;;;;;5023909;28;20095;-66
2022/12/19 00:43:16;;;;;;;81.13;42.47;;;8.80;1.00;;;;;;5031975;28;20029;-66
2022/12/19 00:45:42;;;;;;;75.37;42.07;;;8.70;1.00;;;;;;5032036;28;20489;-67
2022/12/19 00:48:07;;;;;;;83.50;40.77;;;8.80;1.00;;;;;;5033650;28;20036;-66
2022/12/19 00:50:33;;;;;;;73.67;40.10;;;8.50;1.00;;;;;;5022088;28;20097;-67
2022/12/19 00:52:59;;;;;;;78.90;40.77;;;8.30;1.00;;;;;;5030838;28;20032;-66
2022/12/19 00:55:24;;;;;;;80.10;43.03;;;8.60;1.00;;;;;;5022976;28;20038;-67
2022/12/19 00:57:50;;;;;;;79.70;39.27;;;8.50;1.00;;;;;;5029557;28;20040;-66
2022/12/19 01:00:16;;;;;;;76.17;39.30;;;8.50;1.00;;;;;;5033238;28;20075;-66
2022/12/19 01:02:43;;;;;;;83.13;41.33;;;8.50;1.00;;;;;;5030490;28;20426;-67
2022/12/19 01:05:10;;;;;;;80.73;40.33;;;8.40;1.00;;;;;;5032893;28;20032;-66
2022/12/19 01:07:35;;;;;;;82.50;42.73;;;8.60;1.00;;;;;;5024045;28;20027;-66
2022/12/19 01:10:08;;;;;;;82.57;42.77;;;8.60;1.00;;;;;;5044901;28;20517;-66
2022/12/19 01:12:48;;;;;;;82.07;41.40;;;8.70;1.00;;;;;;5025545;28;20069;-67
2022/12/19 01:15:19;;;;;;;79.03;42.63;;;8.60;1.00;;;;;;5019912;28;20029;-67
2022/12/19 01:17:45;;;;;;;78.47;40.10;;;8.80;1.00;;;;;;5033355;28;20123;-66
2022/12/19 01:20:13;;;;;;;73.87;38.63;;;8.60;1.00;;;;;;5031664;28;20037;-66
2022/12/19 01:22:39;;;;;;;79.47;39.67;;;8.70;1.00;;;;;;5032099;28;20113;-67
2022/12/19 01:25:08;;;;;;;80.80;40.23;;;8.70;1.00;;;;;;5031480;28;20132;-67
2022/12/19 01:27:34;;;;;;;77.50;41.27;;;8.60;1.00;;;;;;5030446;28;20116;-66
2022/12/19 01:30:00;;;;;;;81.30;40.43;;;8.80;1.00;;;;;;5031284;28;20113;-66
2022/12/19 01:32:25;;;;;;;83.30;41.07;;;8.80;1.00;;;;;;5030098;28;20105;-67
2022/12/19 01:34:51;;;;;;;82.83;40.87;;;8.80;1.00;;;;;;5027317;28;20034;-66
2022/12/19 01:37:17;;;;;;;77.80;38.67;;;8.80;1.00;;;;;;5028389;28;20029;-67
2022/12/19 01:39:44;;;;;;;75.40;39.67;;;8.80;1.00;;;;;;5032664;28;20052;-67
2022/12/19 01:42:15;;;;;;;82.87;40.13;;;8.80;1.00;;;;;;5040710;28;20092;-67
2022/12/19 01:45:06;;;;;;;79.53;39.50;;;8.70;1.00;;;;;;5035040;28;20030;-67
2022/12/19 01:47:53;;;;;;;77.07;39.77;;;8.80;1.00;;;;;;5023448;28;20079;-67
2022/12/19 01:50:27;;;;;;;80.30;40.33;;;8.80;1.00;;;;;;5029714;28;20053;-66
2022/12/19 01:52:54;;;;;;;87.30;43.22;;;8.80;1.00;;;;;;5019547;28;20029;-67
2022/12/19 01:55:19;;;;;;;78.43;40.73;;;8.80;1.00;;;;;;5028977;28;20022;-66
2022/12/19 01:57:46;;;;;;;89.03;43.10;;;8.80;1.00;;;;;;5024580;28;20025;-66
2022/12/19 02:00:12;;;;;;;73.00;37.77;;;8.70;1.00;;;;;;5032243;28;20096;-66
2022/12/19 02:02:51;;;;;;;82.60;40.42;;;8.80;1.00;;;;;;5032423;28;20025;-66
2022/12/19 02:05:17;;;;;;;72.00;39.07;;;8.90;1.00;;;;;;5030819;28;20030;-66
2022/12/19 02:07:43;;;;;;;78.23;40.23;;;8.90;1.00;;;;;;5032660;28;20040;-67
2022/12/19 02:10:10;;;;;;;82.00;40.00;;;8.90;1.00;;;;;;5032784;28;20088;-66
2022/12/19 02:12:39;;;;;;;74.10;38.40;;;8.90;1.00;;;;;;5044222;28;20037;-66
2022/12/19 02:15:07;;;;;;;75.77;40.20;;;9.00;1.00;;;;;;5031298;28;20037;-66
2022/12/19 02:17:39;;;;;;;75.60;40.83;;;8.90;1.00;;;;;;5031635;28;20079;-67
2022/12/19 02:20:26;;;;;;;78.23;39.60;;;8.90;1.00;;;;;;5028988;28;20068;-66
2022/12/19 02:23:35;;;;;;;80.40;38.67;;;8.90;1.00;;;;;;5019923;28;20025;-66
2022/12/19 02:26:37;;;;;;;76.85;38.80;;;9.00;1.00;;;;;;5031687;28;20036;-66
2022/12/19 02:29:13;;;;;;;82.53;40.27;;;8.90;1.00;;;;;;5032072;28;20029;-66
2022/12/19 02:31:46;;;;;;;81.93;39.07;;;9.00;1.00;;;;;;5027559;28;20461;-66
2022/12/19 02:34:24;;;;;;;84.23;42.03;;;8.90;1.00;;;;;;5031786;28;20072;-66
2022/12/19 02:36:54;;;;;;;84.77;40.43;;;9.00;1.00;;;;;;5025626;28;20038;-66
2022/12/19 02:39:43;;;;;;;77.97;40.83;;;8.80;1.00;;;;;;5032010;28;20134;-66
2022/12/19 02:42:18;;;;;;;78.83;38.57;;;8.80;1.00;;;;;;5024654;28;20514;-66
2022/12/19 02:44:50;;;;;;;80.47;41.28;;;8.80;1.00;;;;;;5029899;28;20435;-66
2022/12/19 02:47:17;;;;;;;83.80;40.20;;;8.80;1.00;;;;;;5031781;28;20151;-66
2022/12/19 02:49:43;;;;;;;78.33;38.23;;;8.80;1.00;;;;;;5031145;28;20071;-66
2022/12/19 02:52:32;;;;;;;73.53;37.73;;;8.70;1.00;;;;;;5022881;28;20033;-66
2022/12/19 02:55:04;;;;;;;67.93;36.63;;;8.80;1.00;;;;;;5030935;28;20056;-66
2022/12/19 02:57:56;;;;;;;70.17;38.23;;;8.80;1.00;;;;;;5046299;28;20029;-66
2022/12/19 03:00:24;;;;;;;80.17;39.60;;;8.60;1.00;;;;;;5015995;28;20071;-66
2022/12/19 03:03:19;;;;;;;72.70;37.80;;;8.70;1.00;;;;;;5031649;28;20495;-66
2022/12/19 03:06:14;;;;;;;76.95;38.95;;;8.70;1.00;;;;;;5021542;28;20026;-66
2022/12/19 03:08:54;;;;;;;73.40;37.17;;;8.60;1.00;;;;;;5011769;28;20492;-66
2022/12/19 03:11:21;;;;;;;77.33;38.93;;;8.70;1.00;;;;;;5024082;28;20058;-66
2022/12/19 03:14:07;;;;;;;74.07;38.83;;;8.70;1.00;;;;;;5014234;28;20084;-66
2022/12/19 03:16:36;;;;;;;76.13;38.33;;;8.60;1.00;;;;;;5031468;28;20025;-66
2022/12/19 03:19:07;;;;;;;78.27;39.63;;;8.80;1.00;;;;;;5031164;28;20026;-67
2022/12/19 03:21:40;;;;;;;78.33;40.07;;;8.70;1.00;;;;;;5025917;28;20038;-66
2022/12/19 03:24:08;;;;;;;76.27;39.60;;;8.80;1.00;;;;;;5026698;28;20038;-67
2022/12/19 03:26:58;;;;;;;72.73;37.93;;;8.80;1.00;;;;;;5027635;28;20453;-66
2022/12/19 03:29:37;;;;;;;82.93;40.33;;;8.80;1.00;;;;;;5026583;28;20073;-67
2022/12/19 03:32:06;;;;;;;81.47;40.63;;;8.80;1.00;;;;;;5035392;28;20033;-66
2022/12/19 03:34:51;;;;;;;83.03;41.43;;;8.90;1.00;;;;;;5035661;28;20442;-66
2022/12/19 03:37:21;;;;;;;81.30;39.33;;;8.80;1.00;;;;;;5033893;28;20536;-67
2022/12/19 03:39:52;;;;;;;74.83;40.87;;;8.90;1.00;;;;;;5030296;28;20031;-67
2022/12/19 03:45:06;;;;;;;76.20;39.73;;;8.70;1.00;;;;;;5035117;28;20095;-67
2022/12/19 03:47:46;;;;;;;69.93;36.57;;;8.80;1.00;;;;;;5033551;28;20207;-67
2022/12/19 03:50:12;;;;;;;81.17;39.93;;;8.70;1.00;;;;;;5034749;28;20041;-67
2022/12/19 03:52:46;;;;;;;76.73;39.47;;;8.70;1.00;;;;;;5035360;28;20525;-66
2022/12/19 03:55:35;;;;;;;78.97;40.08;;;8.70;1.00;;;;;;5033111;28;20060;-66
2022/12/19 03:58:18;;;;;;;69.60;36.50;;;8.80;1.00;;;;;;5034848;28;20022;-66
2022/12/19 04:00:47;;;;;;;71.63;37.73;;;8.80;1.00;;;;;;5033273;28;20026;-67
2022/12/19 04:03:18;;;;;;;75.97;37.87;;;8.80;1.00;;;;;;5034545;28;20037;-67
2022/12/19 04:05:46;;;;;;;73.43;39.03;;;8.70;1.00;;;;;;5026171;28;20468;-66
2022/12/19 04:08:12;;;;;;;71.53;38.93;;;8.40;1.00;;;;;;5030536;28;20387;-67
2022/12/19 04:10:46;;;;;;;69.43;37.60;;;8.50;1.00;;;;;;5031391;28;20407;-67
2022/12/19 04:13:15;;;;;;;73.63;39.63;;;8.70;1.00;;;;;;5034436;28;20380;-67
2022/12/19 04:16:05;;;;;;;76.93;38.27;;;8.50;1.00;;;;;;5028230;28;20041;-67
2022/12/19 04:18:36;;;;;;;68.83;36.77;;;8.40;1.00;;;;;;5034613;28;20076;-67
2022/12/19 04:21:19;;;;;;;66.40;35.30;;;8.50;1.00;;;;;;5033156;28;20029;-67
2022/12/19 04:27:08;;;;;;;61.80;34.20;;;8.50;1.00;;;;;;5026973;28;20032;-67
2022/12/19 04:33:26;;;;;;;67.93;35.37;;;8.40;1.00;;;;;;5027989;28;20189;-67
2022/12/19 04:35:52;;;;;;;60.80;32.97;;;8.50;1.00;;;;;;5023066;28;20156;-67
2022/12/19 04:38:18;;;;;;;63.57;35.53;;;8.50;1.00;;;;;;5034003;28;20056;-67
2022/12/19 04:40:44;;;;;;;64.27;35.37;;;8.60;1.00;;;;;;5033952;28;20112;-67
2022/12/19 04:43:11;;;;;;;61.70;34.27;;;8.60;1.00;;;;;;5032661;28;20440;-67
2022/12/19 04:45:36;;;;;;;61.13;33.22;;;8.60;1.00;;;;;;5032564;28;20037;-67
2022/12/19 04:48:02;;;;;;;61.60;33.58;;;8.50;1.00;;;;;;5032218;28;20029;-66
2022/12/19 04:50:28;;;;;;;58.27;33.23;;;8.30;1.00;;;;;;5033277;28;20049;-66
2022/12/19 04:52:54;;;;;;;65.93;34.13;;;8.30;1.00;;;;;;5033571;28;20036;-66
2022/12/19 04:55:19;;;;;;;63.07;33.80;;;8.30;1.00;;;;;;5029029;28;20029;-66
2022/12/19 04:57:45;;;;;;;61.67;35.53;;;8.40;1.00;;;;;;5027570;28;20104;-66
2022/12/19 05:00:11;;;;;;;59.07;34.67;;;8.50;1.00;;;;;;5029939;28;20470;-66
2022/12/19 05:02:37;;;;;;;63.20;35.60;;;8.40;1.00;;;;;;5025762;28;20038;-66
2022/12/19 05:05:03;;;;;;;56.07;32.43;;;8.40;1.00;;;;;;5029974;28;20022;-66
2022/12/19 05:07:31;;;;;;;60.00;33.33;;;8.20;1.00;;;;;;5024498;28;20025;-66
2022/12/19 05:09:57;;;;;;;61.30;34.17;;;8.30;1.00;;;;;;5032939;28;20057;-66
2022/12/19 05:12:23;;;;;;;63.13;33.33;;;8.30;1.00;;;;;;5033187;28;20030;-66
2022/12/19 05:14:48;;;;;;;63.43;33.50;;;8.40;1.00;;;;;;5033113;28;20064;-66
2022/12/19 05:17:14;;;;;;;62.77;32.67;;;8.30;1.00;;;;;;5033232;28;20545;-66
2022/12/19 05:19:40;;;;;;;53.30;32.10;;;8.20;1.00;;;;;;5033319;28;20475;-66
2022/12/19 05:22:05;;;;;;;59.03;32.03;;;8.30;1.00;;;;;;5032840;28;20064;-66
2022/12/19 05:24:31;;;;;;;58.08;32.30;;;8.30;1.00;;;;;;5033469;28;20026;-66
2022/12/19 05:26:57;;;;;;;54.93;31.37;;;8.20;1.00;;;;;;5033143;28;20036;-65
2022/12/19 05:29:22;;;;;;;57.83;33.63;;;8.20;1.00;;;;;;5032913;28;20045;-66
2022/12/19 05:31:48;;;;;;;56.37;31.57;;;8.20;1.00;;;;;;5030522;28;20049;-66
2022/12/19 05:34:13;;;;;;;56.20;32.80;;;8.20;1.00;;;;;;5043345;28;20061;-66
2022/12/19 05:36:39;;;;;;;52.20;31.10;;;8.20;1.00;;;;;;5025318;28;20048;-66
2022/12/19 05:39:05;;;;;;;57.20;31.90;;;8.30;1.00;;;;;;5028056;28;20029;-66
2022/12/19 05:41:31;;;;;;;54.27;32.77;;;8.40;1.00;;;;;;5021054;28;20087;-66
2022/12/19 05:43:56;;;;;;;57.07;32.10;;;8.20;1.00;;;;;;5032733;28;20372;-66
2022/12/19 05:46:23;;;;;;;60.63;33.20;;;8.40;1.00;;;;;;5032894;28;20336;-66
2022/12/19 05:48:49;;;;;;;57.50;31.40;;;8.30;1.00;;;;;;5031907;28;20064;-66
2022/12/19 05:51:15;;;;;;;59.10;33.17;;;8.20;1.00;;;;;;5031325;28;20037;-66
2022/12/19 05:53:41;;;;;;;56.23;31.53;;;8.40;1.00;;;;;;5031246;28;20044;-66
2022/12/19 05:56:11;;;;;;;58.47;31.37;;;8.20;1.00;;;;;;5029599;28;20022;-65
2022/12/19 05:58:38;;;;;;;50.43;28.53;;;8.20;1.00;;;;;;5029734;28;20025;-66
2022/12/19 06:01:17;;;;;;;51.70;30.70;;;8.20;1.00;;;;;;5029381;28;20033;-66
2022/12/19 06:03:43;;;;;;;54.87;30.20;;;8.10;1.00;;;;;;5031156;28;20083;-66
2022/12/19 06:06:12;;;;;;;52.57;30.60;;;8.10;1.00;;;;;;5023108;28;20066;-65
2022/12/19 06:08:38;;;;;;;51.40;30.67;;;7.90;1.00;;;;;;5029665;28;20040;-65
2022/12/19 06:11:06;;;;;;;57.17;31.30;;;8.10;1.00;;;;;;5030222;28;20057;-66
2022/12/19 06:13:32;;;;;;;59.03;33.10;;;8.10;1.00;;;;;;5029501;28;20018;-66
2022/12/19 06:16:05;;;;;;;63.30;35.47;;;8.20;1.00;;;;;;5032390;28;20028;-66
2022/12/19 06:18:31;;;;;;;62.67;35.17;;;8.20;1.00;;;;;;5032384;28;20018;-66
2022/12/19 06:20:58;;;;;;;57.40;33.13;;;8.30;1.00;;;;;;5032194;28;20029;-66
2022/12/19 06:23:26;;;;;;;59.77;34.87;;;8.20;1.00;;;;;;5031231;28;20013;-66
2022/12/19 06:25:51;;;;;;;62.90;34.40;;;8.20;1.00;;;;;;5023450;28;20032;-66
2022/12/19 06:28:17;;;;;;;59.67;33.43;;;8.20;1.00;;;;;;5025105;28;20530;-66
2022/12/19 06:30:43;;;;;;;61.97;34.80;;;8.10;1.00;;;;;;5032315;28;20411;-66
2022/12/19 06:33:11;;;;;;;66.67;36.47;;;8.20;1.00;;;;;;5030613;28;20056;-66
2022/12/19 06:35:37;;;;;;;60.17;34.27;;;8.20;1.00;;;;;;5030795;28;20039;-66
2022/12/19 06:38:02;;;;;;;64.03;35.37;;;8.10;1.00;;;;;;5022882;28;20033;-66
2022/12/19 06:43:12;;;;;;;57.40;34.77;;;7.90;1.00;;;;;;5032174;28;20037;-66
2022/12/19 06:45:41;;;;;;;62.43;35.23;;;8.00;1.00;;;;;;5030068;28;20029;-66
2022/12/19 06:48:06;;;;;;;59.03;34.53;;;8.00;1.00;;;;;;5032200;28;20022;-66
2022/12/19 06:50:34;;;;;;;59.20;36.27;;;8.00;1.00;;;;;;5029029;28;20092;-66
2022/12/19 06:53:00;;;;;;;58.13;34.73;;;8.00;1.00;;;;;;5030623;28;20415;-66
2022/12/19 06:55:26;;;;;;;63.37;35.67;;;8.10;1.00;;;;;;5028579;28;20113;-66
2022/12/19 06:57:51;;;;;;;60.70;36.03;;;8.20;1.00;;;;;;5029051;28;20080;-66
2022/12/19 07:00:17;;;;;;;68.43;37.07;;;8.20;1.00;;;;;;5031717;28;20029;-66
2022/12/19 07:02:48;;;;;;;66.97;37.47;;;8.20;1.00;;;;;;5027449;28;20021;-66
2022/12/19 07:05:14;;;;;;;64.80;36.70;;;8.30;1.00;;;;;;5035856;28;20103;-66
2022/12/19 07:07:40;;;;;;;71.47;39.43;;;8.20;1.00;;;;;;5035764;28;20506;-66
2022/12/19 07:10:06;;;;;;;69.03;37.53;;;8.20;1.00;;;;;;5034006;28;20053;-66
2022/12/19 07:12:34;;;;;;;65.80;36.77;;;8.10;1.00;;;;;;5035780;28;20051;-67
2022/12/19 07:15:00;;;;;;;66.37;36.33;;;8.30;1.00;;;;;;5032442;28;20025;-66
2022/12/19 07:17:27;;;;;;;58.33;34.50;;;8.10;1.00;;;;;;5029939;28;20451;-66
2022/12/19 07:19:54;;;;;;;60.93;35.93;;;8.30;1.00;;;;;;5034481;28;20022;-66
2022/12/19 07:22:21;;;;;;;60.87;35.50;;;8.20;1.00;;;;;;5027368;28;20034;-66
2022/12/19 07:24:47;;;;;;;61.83;35.97;;;8.20;1.00;;;;;;5028916;28;20041;-66
2022/12/19 07:27:13;;;;;;;66.47;38.07;;;8.20;1.00;;;;;;5026978;28;20037;-66
2022/12/19 07:29:38;;;;;;;68.53;39.53;;;8.20;1.00;;;;;;5035686;28;20037;-67
2022/12/19 07:32:04;;;;;;;67.43;37.80;;;8.30;1.00;;;;;;5031736;28;20040;-66
2022/12/19 07:34:30;;;;;;;66.80;38.17;;;8.30;1.00;;;;;;5035369;28;20414;-66
2022/12/19 07:36:55;;;;;;;69.23;37.13;;;8.40;1.00;;;;;;5022970;28;20108;-66
2022/12/19 07:39:21;;;;;;;61.33;37.23;;;8.40;1.00;;;;;;5035321;28;20028;-66
2022/12/19 07:41:47;;;;;;;70.27;37.90;;;8.10;1.00;;;;;;5034684;28;20029;-65
2022/12/19 07:44:14;;;;;;;66.40;36.47;;;8.20;1.00;;;;;;5033532;28;20180;-66
2022/12/19 07:46:40;;;;;;;57.77;34.83;;;8.20;1.00;;;;;;5034417;28;20434;-66
2022/12/19 07:49:06;;;;;;;65.53;35.10;;;8.20;1.00;;;;;;5035157;28;20068;-66
2022/12/19 07:51:32;;;;;;;63.07;35.53;;;8.30;1.00;;;;;;5023516;28;20129;-66
2022/12/19 07:53:58;;;;;;;59.23;34.20;;;7.70;1.00;;;;;;5033512;28;20108;-66
2022/12/19 07:56:23;;;;;;;62.63;34.50;;;8.00;1.00;;;;;;5024970;28;20488;-66
2022/12/19 07:58:50;;;;;;;59.27;34.37;;;8.00;1.00;;;;;;5032537;28;20034;-66
2022/12/19 08:01:16;;;;;;;55.70;33.60;;;8.20;1.00;;;;;;5033572;28;20168;-66
2022/12/19 08:03:41;;;;;;;53.90;32.47;;;8.00;1.00;;;;;;5027550;28;20080;-66
2022/12/19 08:06:07;;;;;;;57.57;32.37;;;8.20;1.00;;;;;;5034801;28;20021;-66
2022/12/19 08:08:34;;;;;;;55.27;32.70;;;8.00;1.00;;;;;;5035100;28;20031;-66
2022/12/19 08:11:28;;;;;;;52.30;31.13;;;8.20;1.00;;;;;;5032935;28;20060;-66
2022/12/19 08:13:54;;;;;;;56.40;31.70;;;7.80;1.00;;;;;;5034118;28;20482;-66
2022/12/19 08:16:21;;;;;;;45.70;29.00;;;8.20;1.00;;;;;;5027243;28;20417;-66
2022/12/19 08:18:46;;;;;;;52.97;31.57;;;8.20;1.00;;;;;;5023598;28;20029;-66
2022/12/19 08:21:13;;;;;;;51.20;31.50;;;8.20;1.00;;;;;;5031952;28;20371;-67
2022/12/19 08:23:39;;;;;;;54.30;31.30;;;8.30;1.00;;;;;;5034567;28;20026;-67
2022/12/19 08:26:09;;;;;;;54.97;32.50;;;8.40;1.00;;;;;;5026342;28;20462;-67
2022/12/19 08:28:35;;;;;;;47.50;29.13;;;8.40;1.00;;;;;;5034600;28;20372;-66
2022/12/19 08:31:27;;;;;;;50.47;31.53;;;8.50;1.00;;;;;;5029713;28;20052;-66
2022/12/19 08:33:55;;;;;;;53.20;31.83;;;8.60;1.00;;;;;;5033312;28;20026;-66
2022/12/19 08:36:21;;;;;;;45.00;28.97;;;8.60;1.00;;;;;;5025197;28;20052;-65
2022/12/19 08:38:48;;;;;;;44.90;29.87;;;8.60;1.00;;;;;;5043010;28;20033;-66
2022/12/19 08:41:15;;;;;;;49.93;32.17;;;8.60;1.00;;;;;;5022818;28;20472;-66
2022/12/19 08:43:41;;;;;;;48.10;30.97;;;8.60;1.00;;;;;;5028649;28;20038;-66
2022/12/19 08:46:08;;;;;;;48.83;29.63;;;8.40;1.00;;;;;;5029361;28;20571;-65
2022/12/19 08:48:39;;;;;;;47.90;31.03;;;8.20;1.00;;;;;;5034252;28;20436;-66
2022/12/19 08:51:07;;;;;;;46.50;30.50;;;8.30;1.00;;;;;;5021276;28;20060;-66
2022/12/19 08:53:35;;;;;;;49.83;30.03;;;8.40;1.00;;;;;;5032455;28;20032;-66
2022/12/19 08:56:06;;;;;;;50.73;30.03;;;8.60;1.00;;;;;;5032408;28;20024;-65
2022/12/19 08:58:32;;;;;;;43.92;27.85;;;8.40;1.00;;;;;;5034125;28;20029;-67
2022/12/19 09:00:59;;;;;;;48.80;29.97;;;8.50;1.00;;;;;;5022888;28;20064;-66
2022/12/19 09:03:25;;;;;;;53.43;33.13;;;8.40;1.00;;;;;;5034083;28;20029;-65
2022/12/19 09:05:56;;;;;;;45.67;30.87;;;8.40;1.00;;;;;;5021900;28;20452;-60
2022/12/19 09:08:22;;;;;;;45.37;29.40;;;8.40;1.00;;;;;;5033883;28;20017;-67
2022/12/19 09:10:47;;;;;;;50.33;31.57;;;8.40;1.00;;;;;;5024160;28;20096;-67
2022/12/19 09:13:13;;;;;;;47.53;30.87;;;8.20;1.00;;;;;;5033703;28;20014;-67
2022/12/19 09:15:39;;;;;;;52.73;33.50;;;8.40;1.00;;;;;;5024285;28;20029;-67
2022/12/19 09:18:05;;;;;;;52.33;31.73;;;8.40;1.00;;;;;;5033173;28;20099;-68
2022/12/19 09:20:31;;;;;;;46.83;30.33;;;8.60;1.00;;;;;;5033481;28;20060;-68
2022/12/19 09:22:57;;;;;;;49.37;31.87;;;8.60;1.00;;;;;;5032844;28;20389;-68
2022/12/19 09:25:22;;;;;;;49.67;29.90;;;8.70;1.00;;;;;;5032873;28;20048;-68
2022/12/19 09:27:48;;;;;;;43.67;28.20;;;8.70;1.00;;;;;;5033763;28;20091;-67
2022/12/19 09:30:14;;;;;;;45.90;29.67;;;8.60;1.00;;;;;;5031504;28;20116;-67
2022/12/19 09:32:40;;;;;;;47.20;30.10;;;8.70;1.00;;;;;;5028352;28;20143;-68
2022/12/19 09:35:06;;;;;;;42.53;28.47;;;8.90;1.00;;;;;;5033481;28;20116;-68
2022/12/19 09:37:32;;;;;;;49.33;31.23;;;8.90;1.00;;;;;;5030817;28;20033;-67
2022/12/19 09:39:58;;;;;;;45.67;30.43;;;8.90;1.00;;;;;;5015108;28;20033;-67
2022/12/19 09:42:36;;;;;;;48.83;30.87;;;8.90;1.00;;;;;;5029376;28;20027;-67
2022/12/19 09:45:18;;;;;;;48.17;31.47;;;9.10;1.00;;;;;;5032587;28;20036;-67
2022/12/19 09:47:47;;;;;;;42.60;29.10;;;9.10;1.00;;;;;;5031745;28;20033;-68
2022/12/19 09:50:46;;;;;;;48.22;30.23;;;9.30;1.00;;;;;;5032744;28;20037;-68
2022/12/19 09:53:24;;;;;;;49.60;30.30;;;9.20;1.00;;;;;;5031238;28;20038;-68
2022/12/19 09:55:51;;;;;;;49.93;31.53;;;9.10;1.00;;;;;;5032830;28;20057;-68
2022/12/19 09:58:39;;;;;;;47.60;29.40;;;9.10;1.00;;;;;;5024887;28;20030;-68
2022/12/19 10:01:14;;;;;;;47.47;29.40;;;9.10;1.00;;;;;;5031722;28;20459;-67
2022/12/19 10:03:51;;;;;;;47.47;29.75;;;9.00;1.00;;;;;;5028679;28;20429;-67
2022/12/19 10:06:22;;;;;;;51.85;29.95;;;9.10;1.00;;;;;;5023057;28;20036;-67
2022/12/19 10:09:15;;;;;;;48.40;30.40;;;9.00;1.00;;;;;;5032688;28;20061;-68
2022/12/19 10:12:31;;;;;;;47.70;31.02;;;9.20;1.00;;;;;;5026396;28;20050;-67
2022/12/19 10:15:09;;;;;;;46.20;29.93;;;9.00;1.00;;;;;;4956914;28;20041;-67
2022/12/19 10:17:44;;;;;;;51.13;30.33;;;9.10;1.00;;;;;;5041577;28;20037;-67
2022/12/19 10:20:33;;;;;;;45.77;30.37;;;9.20;1.00;;;;;;5042398;28;20040;-67
2022/12/19 10:23:44;;;;;;;49.60;31.00;;;9.00;1.00;;;;;;5031000;28;20026;-66
2022/12/19 10:26:20;;;;;;;46.53;28.77;;;9.00;1.00;;;;;;5042102;28;20025;-66
2022/12/19 10:29:23;;;;;;;52.15;31.45;;;9.10;1.00;;;;;;5032388;28;20524;-66
2022/12/19 10:32:13;;;;;;;45.03;30.23;;;9.20;1.00;;;;;;5028219;28;20060;-66
2022/12/19 10:34:45;;;;;;;49.88;30.80;;;9.10;1.00;;;;;;5032378;28;20352;-66
2022/12/19 10:37:23;;;;;;;51.03;31.10;;;9.00;1.00;;;;;;5022812;28;20025;-67
2022/12/19 10:40:25;;;;;;;49.13;32.07;;;9.30;1.00;;;;;;5031543;28;20025;-66
2022/12/19 10:43:10;;;;;;;51.53;31.35;;;9.40;1.00;;;;;;5031915;28;20468;-66
2022/12/19 10:45:46;;;;;;;47.92;31.75;;;9.10;1.00;;;;;;5024925;28;20117;-68
2022/12/19 10:48:17;;;;;;;51.10;32.83;;;9.10;1.00;;;;;;5029502;28;20036;-68
2022/12/19 10:50:43;;;;;;;48.83;31.40;;;9.20;1.00;;;;;;5035386;28;20086;-66
2022/12/19 10:53:10;;;;;;;48.97;30.50;;;9.30;1.00;;;;;;5027202;28;20029;-66
2022/12/19 10:55:38;;;;;;;48.95;30.75;;;9.40;1.00;;;;;;5030468;28;20021;-66
2022/12/19 10:58:10;;;;;;;47.30;31.17;;;9.70;1.00;;;;;;5025966;28;20480;-66
2022/12/19 11:00:36;;;;;;;46.30;29.33;;;9.70;1.00;;;;;;5031548;28;20021;-67
2022/12/19 11:03:13;;;;;;;50.45;32.42;;;9.70;1.00;;;;;;5031952;28;20168;-67
2022/12/19 11:05:51;;;;;;;47.08;29.98;;;9.70;1.00;;;;;;5019916;28;20109;-67
2022/12/19 11:08:30;;;;;;;49.63;31.02;;;9.50;1.00;;;;;;5032075;28;20029;-67
2022/12/19 11:11:02;;;;;;;48.97;30.67;;;9.70;1.00;;;;;;5030242;28;20045;-66
2022/12/19 11:13:41;;;;;;;55.10;33.22;;;9.60;1.00;;;;;;5026470;28;20026;-66
2022/12/19 11:16:08;;;;;;;52.67;31.45;;;9.60;1.00;;;;;;5023933;28;20044;-66
2022/12/19 11:18:43;;;;;;;53.00;33.25;;;9.80;1.00;;;;;;5031593;28;20033;-64
2022/12/19 11:21:27;;;;;;;50.83;32.70;;;9.80;1.00;;;;;;5031648;28;20041;-64
2022/12/19 11:24:05;;;;;;;51.05;32.80;;;9.80;1.00;;;;;;5019039;28;20028;-64
2022/12/19 11:26:40;;;;;;;51.15;32.28;;;9.80;1.00;;;;;;5027259;28;20029;-68
2022/12/19 11:29:20;;;;;;;51.60;32.50;;;9.50;1.00;;;;;;5027324;28;20025;-67
2022/12/19 11:31:47;;;;;;;46.90;28.65;;;9.70;1.00;;;;;;5031958;28;20041;-67
2022/12/19 11:34:20;;;;;;;47.45;31.30;;;9.70;1.00;;;;;;5029925;28;20029;-67
2022/12/19 11:37:20;;;;;;;47.88;30.88;;;9.60;1.00;;;;;;5031597;28;20025;-67
2022/12/19 11:39:56;;;;;;;48.47;31.00;;;9.70;1.00;;;;;;5022050;28;20422;-67
2022/12/19 11:42:26;;;;;;;50.97;29.13;;;9.70;1.00;;;;;;5019885;28;20037;-65
2022/12/19 11:45:18;;;;;;;47.85;32.17;;;9.60;1.00;;;;;;5031496;28;20033;-66
2022/12/19 11:47:56;;;;;;;48.33;30.80;;;9.80;1.00;;;;;;5033417;28;20056;-66
2022/12/19 11:50:30;;;;;;;49.78;32.58;;;9.70;1.00;;;;;;5032506;28;20037;-66
2022/12/19 11:53:11;;;;;;;49.77;31.73;;;9.70;1.00;;;;;;5031859;28;20551;-65
2022/12/19 11:55:51;;;;;;;51.80;33.97;;;9.70;1.00;;;;;;5031949;28;20068;-65
2022/12/19 11:58:17;;;;;;;53.38;31.27;;;9.50;1.00;;;;;;5033632;28;20032;-65
2022/12/19 12:01:22;;;;;;;56.40;34.70;;;9.60;1.00;;;;;;5033353;28;20105;-65
2022/12/19 12:04:21;;;;;;;48.15;31.60;;;9.40;1.00;;;;;;5021728;28;20464;-65
2022/12/19 12:06:51;;;;;;;50.70;33.20;;;9.80;1.00;;;;;;5027060;28;20091;-65
2022/12/19 12:09:45;;;;;;;54.78;34.83;;;9.40;1.00;;;;;;5034577;28;20025;-65
2022/12/19 12:12:31;;;;;;;47.33;29.65;;;9.70;1.00;;;;;;5025325;28;20483;-65
2022/12/19 12:15:26;;;;;;;45.83;30.02;;;9.80;1.00;;;;;;5033927;28;20418;-65
2022/12/19 12:18:10;;;;;;;45.30;32.00;;;9.90;1.00;;;;;;5018297;28;20037;-65
2022/12/19 12:20:50;;;;;;;46.63;31.00;;;9.90;1.00;;;;;;5027344;28;20094;-65
2022/12/19 12:23:42;;;;;;;50.35;34.63;;;9.90;1.00;;;;;;5025062;28;20041;-65
2022/12/19 12:26:30;;;;;;;52.45;33.50;;;10.10;1.00;;;;;;5061708;28;20071;-66
2022/12/19 12:29:14;;;;;;;56.30;34.28;;;10.30;1.00;;;;;;5022354;28;20030;-65
2022/12/19 12:31:44;;;;;;;57.95;34.55;;;10.20;1.00;;;;;;5033041;28;20491;-65
2022/12/19 12:34:35;;;;;;;63.25;37.38;;;10.00;1.00;;;;;;5034240;28;20379;-65
2022/12/19 12:37:38;;;;;;;61.80;38.10;;;10.00;1.00;;;;;;5025186;28;20029;-66
2022/12/19 12:40:09;;;;;;;60.25;37.60;;;10.10;1.00;;;;;;5024278;28;20110;-65
2022/12/19 12:42:47;;;;;;;59.15;36.45;;;10.10;1.00;;;;;;5031767;28;20169;-65
2022/12/19 12:45:36;;;;;;;61.75;35.88;;;10.10;1.00;;;;;;5034554;28;20495;-65
2022/12/19 12:48:02;;;;;;;60.75;37.25;;;9.90;1.00;;;;;;5034031;28;20101;-66
2022/12/19 12:50:29;;;;;;;59.58;36.50;;;9.90;1.00;;;;;;5031313;28;20120;-65
2022/12/19 12:53:01;;;;;;;59.88;35.78;;;10.10;1.00;;;;;;5039470;28;20517;-65
2022/12/19 12:55:30;;;;;;;59.10;34.20;;;10.10;1.00;;;;;;5036245;28;20045;-65
2022/12/19 12:57:57;;;;;;;53.65;33.80;;;9.90;1.00;;;;;;5036815;28;20173;-65
2022/12/19 13:00:23;;;;;;;54.30;33.90;;;10.00;1.00;;;;;;5040686;28;20028;-65
2022/12/19 13:03:03;;;;;;;54.53;34.28;;;9.90;1.00;;;;;;5028402;28;20526;-65
2022/12/19 13:05:42;;;;;;;60.30;35.55;;;9.80;1.00;;;;;;5032678;28;20566;-66
2022/12/19 13:08:30;;;;;;;58.55;35.50;;;9.70;1.00;;;;;;5035743;28;20076;-65
2022/12/19 13:14:33;;;;;;;58.55;36.47;;;10.00;1.00;;;;;;5032665;28;20088;-66
2022/12/19 13:17:16;;;;;;;60.28;36.08;;;9.90;1.00;;;;;;5038738;28;20047;-65
2022/12/19 13:19:56;;;;;;;61.33;36.53;;;10.00;1.00;;;;;;5031821;28;20029;-65
2022/12/19 13:22:37;;;;;;;59.70;35.83;;;10.10;1.00;;;;;;5034532;28;20041;-66
2022/12/19 13:25:26;;;;;;;54.53;33.53;;;10.00;1.00;;;;;;5036264;28;20065;-66
2022/12/19 13:28:21;;;;;;;57.70;34.88;;;10.10;1.00;;;;;;5042193;28;20553;-66